sensor_id;sensor_type;location;lat;lon;timestamp;temperature;humidity
9305;DHT22;4690;52.422;13.486;2023-04-16T00:05:27;11.20;99.90
9305;DHT22;4690;52.422;13.486;2023-04-16T00:07:52;11.10;99.90
9305;DHT22;4690;52.422;13.486;2023-04-16T00:10:18;11.10;99.90
9305;DHT22;4690;52.422;13.486;2023-04-16T00:12:44;11.10;99.90
9305;DHT22;4690;52.422;13.486;2023-04-16T00:15:10;11.10;99.90
9305;DHT22;4690;52.422;13.486;2023-04-16T00:17:35;11.10;99.90
9305;DHT22;4690;52.422;13.486;2023-04-16T00:20:01;11.10;99.90
9305;DHT22;4690;52.422;13.486;2023-04-16T00:22:27;11.10;99.90
9305;DHT22;4690;52.422;13.486;2023-04-16T00:24:53;11.10;99.90
9305;DHT22;4690;52.422;13.486;2023-04-16T00:27:19;11.10;99.90
9305;DHT22;4690;52.422;13.486;2023-04-16T00:29:45;11.10;99.90
9305;DHT22;4690;52.422;13.486;2023-04-16T00:32:10;11.10;99.90
9305;DHT22;4690;52.422;13.486;2023-04-16T00:34:36;11.10;99.90
9305;DHT22;4690;52.422;13.486;2023-04-16T00:37:02;11.10;99.90
9305;DHT22;4690;52.422;13.486;2023-04-16T00:39:28;11.10;99.90
9305;DHT22;4690;52.422;13.486;2023-04-16T00:41:53;11.00;99.90
9305;DHT22;4690;52.422;13.486;2023-04-16T00:44:19;11.00;99.90
9305;DHT22;4690;52.422;13.486;2023-04-16T00:46:45;11.00;99.90
9305;DHT22;4690;52.422;13.486;2023-04-16T00:49:11;11.00;99.90
9305;DHT22;4690;52.422;13.486;2023-04-16T00:51:37;11.00;99.90
9305;DHT22;4690;52.422;13.486;2023-04-16T00:54:03;11.00;99.90
9305;DHT22;4690;52.422;13.486;2023-04-16T00:56:31;11.00;99.90
9305;DHT22;4690;52.422;13.486;2023-04-16T00:58:58;11.00;99.90
9305;DHT22;4690;52.422;13.486;2023-04-16T01:01:23;11.00;99.90
9305;DHT22;4690;52.422;13.486;2023-04-16T01:03:49;11.00;99.90
9305;DHT22;4690;52.422;13.486;2023-04-16T01:06:18;11.00;99.90
9305;DHT22;4690;52.422;13.486;2023-04-16T01:08:45;10.90;99.90
9305;DHT22;4690;52.422;13.486;2023-04-16T01:11:13;11.00;99.90
9305;DHT22;4690;52.422;13.486;2023-04-16T01:13:40;11.00;99.90
9305;DHT22;4690;52.422;13.486;2023-04-16T01:16:08;11.00;99.90
9305;DHT22;4690;52.422;13.486;2023-04-16T01:18:36;11.00;99.90
9305;DHT22;4690;52.422;13.486;2023-04-16T01:21:03;10.90;99.90
9305;DHT22;4690;52.422;13.486;2023-04-16T01:23:30;11.00;99.90
9305;DHT22;4690;52.422;13.486;2023-04-16T01:25:56;11.00;99.90
9305;DHT22;4690;52.422;13.486;2023-04-16T01:28:22;11.00;99.90
9305;DHT22;4690;52.422;13.486;2023-04-16T01:30:48;11.00;99.90
9305;DHT22;4690;52.422;13.486;2023-04-16T01:33:14;11.00;99.90
9305;DHT22;4690;52.422;13.486;2023-04-16T01:35:40;11.00;99.90
9305;DHT22;4690;52.422;13.486;2023-04-16T01:38:07;11.00;99.90
9305;DHT22;4690;52.422;13.486;2023-04-16T01:40:34;11.00;99.90
9305;DHT22;4690;52.422;13.486;2023-04-16T01:43:01;11.00;99.90
9305;DHT22;4690;52.422;13.486;2023-04-16T01:45:27;11.00;99.90
9305;DHT22;4690;52.422;13.486;2023-04-16T01:47:53;11.10;99.90
9305;DHT22;4690;52.422;13.486;2023-04-16T01:50:20;11.00;99.90
9305;DHT22;4690;52.422;13.486;2023-04-16T01:52:46;11.00;99.90
9305;DHT22;4690;52.422;13.486;2023-04-16T01:55:12;11.00;99.90
9305;DHT22;4690;52.422;13.486;2023-04-16T01:57:38;11.00;99.90
9305;DHT22;4690;52.422;13.486;2023-04-16T02:00:04;11.00;99.90
9305;DHT22;4690;52.422;13.486;2023-04-16T02:02:30;11.00;99.90
9305;DHT22;4690;52.422;13.486;2023-04-16T02:04:56;11.10;99.90
9305;DHT22;4690;52.422;13.486;2023-04-16T02:07:23;11.10;99.90
9305;DHT22;4690;52.422;13.486;2023-04-16T02:09:49;11.10;99.90
9305;DHT22;4690;52.422;13.486;2023-04-16T02:12:15;11.10;99.90
9305;DHT22;4690;52.422;13.486;2023-04-16T02:14:41;11.10;99.90
9305;DHT22;4690;52.422;13.486;2023-04-16T02:17:07;11.10;99.90
9305;DHT22;4690;52.422;13.486;2023-04-16T02:19:33;11.00;99.90
9305;DHT22;4690;52.422;13.486;2023-04-16T02:21:59;11.10;99.90
9305;DHT22;4690;52.422;13.486;2023-04-16T02:24:28;11.10;99.90
9305;DHT22;4690;52.422;13.486;2023-04-16T02:26:54;11.10;99.90
9305;DHT22;4690;52.422;13.486;2023-04-16T02:29:20;11.10;99.90
9305;DHT22;4690;52.422;13.486;2023-04-16T02:31:47;11.10;99.90
9305;DHT22;4690;52.422;13.486;2023-04-16T02:34:13;11.00;99.90
9305;DHT22;4690;52.422;13.486;2023-04-16T02:36:40;11.10;99.90
9305;DHT22;4690;52.422;13.486;2023-04-16T02:39:06;11.10;99.90
9305;DHT22;4690;52.422;13.486;2023-04-16T02:41:32;11.00;99.90
9305;DHT22;4690;52.422;13.486;2023-04-16T02:43:57;11.00;99.90
9305;DHT22;4690;52.422;13.486;2023-04-16T02:46:23;11.00;99.90
9305;DHT22;4690;52.422;13.486;2023-04-16T02:48:49;11.10;99.90
9305;DHT22;4690;52.422;13.486;2023-04-16T02:51:15;11.10;99.90
9305;DHT22;4690;52.422;13.486;2023-04-16T02:53:41;11.00;99.90
9305;DHT22;4690;52.422;13.486;2023-04-16T02:56:10;11.00;99.90
9305;DHT22;4690;52.422;13.486;2023-04-16T02:58:37;11.10;99.90
9305;DHT22;4690;52.422;13.486;2023-04-16T03:01:03;11.10;99.90
9305;DHT22;4690;52.422;13.486;2023-04-16T03:03:29;11.10;99.90
9305;DHT22;4690;52.422;13.486;2023-04-16T03:05:55;11.00;99.90
9305;DHT22;4690;52.422;13.486;2023-04-16T03:08:21;11.00;99.90
9305;DHT22;4690;52.422;13.486;2023-04-16T03:10:47;11.10;99.90
9305;DHT22;4690;52.422;13.486;2023-04-16T03:13:12;11.10;99.90
9305;DHT22;4690;52.422;13.486;2023-04-16T03:15:38;11.10;99.90
9305;DHT22;4690;52.422;13.486;2023-04-16T03:18:04;11.10;99.90
9305;DHT22;4690;52.422;13.486;2023-04-16T03:20:30;11.10;99.90
9305;DHT22;4690;52.422;13.486;2023-04-16T03:22:56;11.10;99.90
9305;DHT22;4690;52.422;13.486;2023-04-16T03:25:22;11.00;99.90
9305;DHT22;4690;52.422;13.486;2023-04-16T03:27:47;11.10;99.90
9305;DHT22;4690;52.422;13.486;2023-04-16T03:30:13;11.10;99.90
9305;DHT22;4690;52.422;13.486;2023-04-16T03:32:39;11.10;99.90
9305;DHT22;4690;52.422;13.486;2023-04-16T03:35:06;11.10;99.90
9305;DHT22;4690;52.422;13.486;2023-04-16T03:37:33;11.00;99.90
9305;DHT22;4690;52.422;13.486;2023-04-16T03:39:59;11.10;99.90
9305;DHT22;4690;52.422;13.486;2023-04-16T03:42:25;11.00;99.90
9305;DHT22;4690;52.422;13.486;2023-04-16T03:44:51;11.00;99.90
9305;DHT22;4690;52.422;13.486;2023-04-16T03:47:18;11.00;99.90
9305;DHT22;4690;52.422;13.486;2023-04-16T03:49:45;11.00;99.90
9305;DHT22;4690;52.422;13.486;2023-04-16T03:52:10;10.90;99.90
9305;DHT22;4690;52.422;13.486;2023-04-16T03:54:36;10.90;99.90
9305;DHT22;4690;52.422;13.486;2023-04-16T03:57:02;10.90;99.90
9305;DHT22;4690;52.422;13.486;2023-04-16T03:59:28;10.90;99.90
9305;DHT22;4690;52.422;13.486;2023-04-16T04:01:53;10.90;99.90
9305;DHT22;4690;52.422;13.486;2023-04-16T04:04:20;10.90;99.90
9305;DHT22;4690;52.422;13.486;2023-04-16T04:06:46;10.90;99.90
9305;DHT22;4690;52.422;13.486;2023-04-16T04:09:12;10.90;99.90
9305;DHT22;4690;52.422;13.486;2023-04-16T04:11:38;10.90;99.90
9305;DHT22;4690;52.422;13.486;2023-04-16T04:14:04;10.80;99.90
9305;DHT22;4690;52.422;13.486;2023-04-16T04:16:31;10.80;99.90
9305;DHT22;4690;52.422;13.486;2023-04-16T04:18:56;10.80;99.90
9305;DHT22;4690;52.422;13.486;2023-04-16T04:21:24;10.80;99.90
9305;DHT22;4690;52.422;13.486;2023-04-16T04:23:51;10.70;99.90
9305;DHT22;4690;52.422;13.486;2023-04-16T04:26:17;10.70;99.90
9305;DHT22;4690;52.422;13.486;2023-04-16T04:28:43;10.70;99.90
9305;DHT22;4690;52.422;13.486;2023-04-16T04:31:08;10.70;99.90
9305;DHT22;4690;52.422;13.486;2023-04-16T04:33:34;10.70;99.90
9305;DHT22;4690;52.422;13.486;2023-04-16T04:36:00;10.60;99.90
9305;DHT22;4690;52.422;13.486;2023-04-16T04:38:26;10.60;99.90
9305;DHT22;4690;52.422;13.486;2023-04-16T04:40:52;10.60;99.90
9305;DHT22;4690;52.422;13.486;2023-04-16T04:43:19;10.60;99.90
9305;DHT22;4690;52.422;13.486;2023-04-16T04:45:45;10.60;99.90
9305;DHT22;4690;52.422;13.486;2023-04-16T04:48:12;10.70;99.90
9305;DHT22;4690;52.422;13.486;2023-04-16T04:50:38;10.70;99.90
9305;DHT22;4690;52.422;13.486;2023-04-16T04:53:05;10.60;99.90
9305;DHT22;4690;52.422;13.486;2023-04-16T04:55:35;10.60;99.90
9305;DHT22;4690;52.422;13.486;2023-04-16T04:58:03;10.70;99.90
9305;DHT22;4690;52.422;13.486;2023-04-16T05:00:31;10.70;99.90
9305;DHT22;4690;52.422;13.486;2023-04-16T05:02:58;10.70;99.90
9305;DHT22;4690;52.422;13.486;2023-04-16T05:05:26;10.70;99.90
9305;DHT22;4690;52.422;13.486;2023-04-16T05:07:52;10.80;99.90
9305;DHT22;4690;52.422;13.486;2023-04-16T05:10:18;10.80;99.90
9305;DHT22;4690;52.422;13.486;2023-04-16T05:12:45;10.70;99.90
9305;DHT22;4690;52.422;13.486;2023-04-16T05:15:12;10.70;99.90
9305;DHT22;4690;52.422;13.486;2023-04-16T05:17:38;10.70;99.90
9305;DHT22;4690;52.422;13.486;2023-04-16T05:20:05;10.70;99.90
9305;DHT22;4690;52.422;13.486;2023-04-16T05:22:32;10.70;99.90
9305;DHT22;4690;52.422;13.486;2023-04-16T05:24:57;10.70;99.90
9305;DHT22;4690;52.422;13.486;2023-04-16T05:27:23;10.70;99.90
9305;DHT22;4690;52.422;13.486;2023-04-16T05:29:49;10.70;99.90
9305;DHT22;4690;52.422;13.486;2023-04-16T05:32:15;10.70;99.90
9305;DHT22;4690;52.422;13.486;2023-04-16T05:34:40;10.70;99.90
9305;DHT22;4690;52.422;13.486;2023-04-16T05:37:06;10.70;99.90
9305;DHT22;4690;52.422;13.486;2023-04-16T05:39:32;10.70;99.90
9305;DHT22;4690;52.422;13.486;2023-04-16T05:41:57;10.70;99.90
9305;DHT22;4690;52.422;13.486;2023-04-16T05:44:23;10.60;99.90
9305;DHT22;4690;52.422;13.486;2023-04-16T05:46:50;10.60;99.90
9305;DHT22;4690;52.422;13.486;2023-04-16T05:49:16;10.60;99.90
9305;DHT22;4690;52.422;13.486;2023-04-16T05:51:43;10.60;99.90
9305;DHT22;4690;52.422;13.486;2023-04-16T05:54:09;10.60;99.90
9305;DHT22;4690;52.422;13.486;2023-04-16T05:56:34;10.60;99.90
9305;DHT22;4690;52.422;13.486;2023-04-16T05:59:00;10.60;99.90
9305;DHT22;4690;52.422;13.486;2023-04-16T06:01:26;10.60;99.90
9305;DHT22;4690;52.422;13.486;2023-04-16T06:03:52;10.60;99.90
9305;DHT22;4690;52.422;13.486;2023-04-16T06:06:17;10.70;99.90
9305;DHT22;4690;52.422;13.486;2023-04-16T06:08:43;10.70;99.90
9305;DHT22;4690;52.422;13.486;2023-04-16T06:11:09;10.70;99.90
9305;DHT22;4690;52.422;13.486;2023-04-16T06:13:35;10.70;99.90
9305;DHT22;4690;52.422;13.486;2023-04-16T06:16:01;10.80;99.90
9305;DHT22;4690;52.422;13.486;2023-04-16T06:18:27;10.70;99.90
9305;DHT22;4690;52.422;13.486;2023-04-16T06:20:53;10.80;99.90
9305;DHT22;4690;52.422;13.486;2023-04-16T06:23:19;10.80;99.90
9305;DHT22;4690;52.422;13.486;2023-04-16T06:25:45;10.80;99.90
9305;DHT22;4690;52.422;13.486;2023-04-16T06:28:11;10.70;99.90
9305;DHT22;4690;52.422;13.486;2023-04-16T06:30:38;10.70;99.90
9305;DHT22;4690;52.422;13.486;2023-04-16T06:33:04;10.70;99.90
9305;DHT22;4690;52.422;13.486;2023-04-16T06:35:30;10.70;99.90
9305;DHT22;4690;52.422;13.486;2023-04-16T06:37:55;10.80;99.90
9305;DHT22;4690;52.422;13.486;2023-04-16T06:40:21;10.80;99.90
9305;DHT22;4690;52.422;13.486;2023-04-16T06:42:47;10.80;99.90
9305;DHT22;4690;52.422;13.486;2023-04-16T06:45:13;10.70;99.90
9305;DHT22;4690;52.422;13.486;2023-04-16T06:47:38;10.80;99.90
9305;DHT22;4690;52.422;13.486;2023-04-16T06:50:05;10.80;99.90
9305;DHT22;4690;52.422;13.486;2023-04-16T06:52:31;10.80;99.90
9305;DHT22;4690;52.422;13.486;2023-04-16T06:54:57;10.80;99.90
9305;DHT22;4690;52.422;13.486;2023-04-16T06:57:23;10.80;99.90
9305;DHT22;4690;52.422;13.486;2023-04-16T06:59:49;10.90;99.90
9305;DHT22;4690;52.422;13.486;2023-04-16T07:02:15;11.00;99.90
9305;DHT22;4690;52.422;13.486;2023-04-16T07:04:41;11.10;99.90
9305;DHT22;4690;52.422;13.486;2023-04-16T07:07:07;11.10;99.90
9305;DHT22;4690;52.422;13.486;2023-04-16T07:09:33;11.10;99.90
9305;DHT22;4690;52.422;13.486;2023-04-16T07:11:59;11.00;99.90
9305;DHT22;4690;52.422;13.486;2023-04-16T07:14:25;11.10;99.90
9305;DHT22;4690;52.422;13.486;2023-04-16T07:16:51;11.00;99.90
9305;DHT22;4690;52.422;13.486;2023-04-16T07:19:16;11.00;99.90
9305;DHT22;4690;52.422;13.486;2023-04-16T07:21:42;11.00;99.90
9305;DHT22;4690;52.422;13.486;2023-04-16T07:24:09;10.90;99.90
9305;DHT22;4690;52.422;13.486;2023-04-16T07:26:38;11.00;99.90
9305;DHT22;4690;52.422;13.486;2023-04-16T07:29:04;11.00;99.90
9305;DHT22;4690;52.422;13.486;2023-04-16T07:31:29;11.00;99.90
9305;DHT22;4690;52.422;13.486;2023-04-16T07:33:56;11.10;99.90
9305;DHT22;4690;52.422;13.486;2023-04-16T07:36:22;11.10;99.90
9305;DHT22;4690;52.422;13.486;2023-04-16T07:38:48;11.20;99.90
9305;DHT22;4690;52.422;13.486;2023-04-16T07:41:13;11.10;99.90
9305;DHT22;4690;52.422;13.486;2023-04-16T07:43:39;11.10;99.90
9305;DHT22;4690;52.422;13.486;2023-04-16T07:46:05;11.10;99.90
9305;DHT22;4690;52.422;13.486;2023-04-16T07:48:31;11.20;99.90
9305;DHT22;4690;52.422;13.486;2023-04-16T07:50:57;11.20;99.90
9305;DHT22;4690;52.422;13.486;2023-04-16T07:53:22;11.40;99.90
9305;DHT22;4690;52.422;13.486;2023-04-16T07:55:48;11.40;99.90
9305;DHT22;4690;52.422;13.486;2023-04-16T07:58:14;11.40;99.90
9305;DHT22;4690;52.422;13.486;2023-04-16T08:00:40;11.50;99.90
9305;DHT22;4690;52.422;13.486;2023-04-16T08:03:05;11.50;99.90
9305;DHT22;4690;52.422;13.486;2023-04-16T08:05:31;11.50;99.90
9305;DHT22;4690;52.422;13.486;2023-04-16T08:07:57;11.50;99.90
9305;DHT22;4690;52.422;13.486;2023-04-16T08:10:23;11.50;99.90
9305;DHT22;4690;52.422;13.486;2023-04-16T08:12:48;11.60;99.90
9305;DHT22;4690;52.422;13.486;2023-04-16T08:15:14;11.50;99.90
9305;DHT22;4690;52.422;13.486;2023-04-16T08:17:41;11.60;99.90
9305;DHT22;4690;52.422;13.486;2023-04-16T08:20:07;11.40;99.90
9305;DHT22;4690;52.422;13.486;2023-04-16T08:22:33;11.50;99.90
9305;DHT22;4690;52.422;13.486;2023-04-16T08:24:58;11.40;99.90
9305;DHT22;4690;52.422;13.486;2023-04-16T08:27:24;11.40;99.90
9305;DHT22;4690;52.422;13.486;2023-04-16T08:29:50;11.40;99.90
9305;DHT22;4690;52.422;13.486;2023-04-16T08:32:16;11.30;99.90
9305;DHT22;4690;52.422;13.486;2023-04-16T08:34:42;11.30;99.90
9305;DHT22;4690;52.422;13.486;2023-04-16T08:37:08;11.30;99.90
9305;DHT22;4690;52.422;13.486;2023-04-16T08:39:34;11.40;99.90
9305;DHT22;4690;52.422;13.486;2023-04-16T08:42:03;11.50;99.90
9305;DHT22;4690;52.422;13.486;2023-04-16T08:44:35;11.50;99.90
9305;DHT22;4690;52.422;13.486;2023-04-16T08:47:07;11.60;99.90
9305;DHT22;4690;52.422;13.486;2023-04-16T08:49:42;11.40;99.90
9305;DHT22;4690;52.422;13.486;2023-04-16T08:52:14;11.40;99.90
9305;DHT22;4690;52.422;13.486;2023-04-16T08:54:55;11.30;99.90
9305;DHT22;4690;52.422;13.486;2023-04-16T08:57:41;11.30;99.90
9305;DHT22;4690;52.422;13.486;2023-04-16T09:00:12;11.40;99.90
9305;DHT22;4690;52.422;13.486;2023-04-16T09:02:39;11.30;99.90
9305;DHT22;4690;52.422;13.486;2023-04-16T09:05:06;11.30;99.90
9305;DHT22;4690;52.422;13.486;2023-04-16T09:07:34;11.40;99.90
9305;DHT22;4690;52.422;13.486;2023-04-16T09:10:02;11.50;99.90
9305;DHT22;4690;52.422;13.486;2023-04-16T09:12:29;11.40;99.90
9305;DHT22;4690;52.422;13.486;2023-04-16T09:14:56;11.50;99.90
9305;DHT22;4690;52.422;13.486;2023-04-16T09:17:25;11.40;99.90
9305;DHT22;4690;52.422;13.486;2023-04-16T09:19:51;11.40;99.90
9305;DHT22;4690;52.422;13.486;2023-04-16T09:22:18;11.30;99.90
9305;DHT22;4690;52.422;13.486;2023-04-16T09:24:44;11.30;99.90
9305;DHT22;4690;52.422;13.486;2023-04-16T09:27:11;11.20;99.90
9305;DHT22;4690;52.422;13.486;2023-04-16T09:29:41;11.30;99.90
9305;DHT22;4690;52.422;13.486;2023-04-16T09:32:08;11.30;99.90
9305;DHT22;4690;52.422;13.486;2023-04-16T09:34:59;11.40;99.90
9305;DHT22;4690;52.422;13.486;2023-04-16T09:37:27;11.40;99.90
9305;DHT22;4690;52.422;13.486;2023-04-16T09:39:58;11.40;99.90
9305;DHT22;4690;52.422;13.486;2023-04-16T09:42:30;11.50;99.90
9305;DHT22;4690;52.422;13.486;2023-04-16T09:44:57;11.60;99.90
9305;DHT22;4690;52.422;13.486;2023-04-16T09:47:41;11.80;99.90
9305;DHT22;4690;52.422;13.486;2023-04-16T09:50:08;11.90;99.90
9305;DHT22;4690;52.422;13.486;2023-04-16T09:52:38;11.90;99.90
9305;DHT22;4690;52.422;13.486;2023-04-16T09:55:04;12.10;99.90
9305;DHT22;4690;52.422;13.486;2023-04-16T09:57:30;12.10;99.90
9305;DHT22;4690;52.422;13.486;2023-04-16T10:00:05;12.10;99.90
9305;DHT22;4690;52.422;13.486;2023-04-16T10:02:33;12.10;99.90
9305;DHT22;4690;52.422;13.486;2023-04-16T10:05:03;12.20;99.90
9305;DHT22;4690;52.422;13.486;2023-04-16T10:07:34;12.20;99.90
9305;DHT22;4690;52.422;13.486;2023-04-16T10:10:02;12.20;99.90
9305;DHT22;4690;52.422;13.486;2023-04-16T10:12:29;12.20;99.90
9305;DHT22;4690;52.422;13.486;2023-04-16T10:14:57;12.30;99.90
9305;DHT22;4690;52.422;13.486;2023-04-16T10:17:23;12.30;99.90
9305;DHT22;4690;52.422;13.486;2023-04-16T10:19:50;12.40;99.90
9305;DHT22;4690;52.422;13.486;2023-04-16T10:22:18;12.60;99.90
9305;DHT22;4690;52.422;13.486;2023-04-16T10:24:45;12.60;99.90
9305;DHT22;4690;52.422;13.486;2023-04-16T10:27:12;12.50;99.90
9305;DHT22;4690;52.422;13.486;2023-04-16T10:29:39;12.40;99.90
9305;DHT22;4690;52.422;13.486;2023-04-16T10:32:05;12.30;99.90
9305;DHT22;4690;52.422;13.486;2023-04-16T10:34:32;12.00;99.90
9305;DHT22;4690;52.422;13.486;2023-04-16T10:36:59;11.90;99.90
9305;DHT22;4690;52.422;13.486;2023-04-16T10:39:27;11.80;99.90
9305;DHT22;4690;52.422;13.486;2023-04-16T10:42:10;11.80;99.90
9305;DHT22;4690;52.422;13.486;2023-04-16T10:44:38;11.90;99.90
9305;DHT22;4690;52.422;13.486;2023-04-16T10:47:13;11.90;99.90
9305;DHT22;4690;52.422;13.486;2023-04-16T10:49:40;11.90;99.90
9305;DHT22;4690;52.422;13.486;2023-04-16T10:52:11;11.90;99.90
9305;DHT22;4690;52.422;13.486;2023-04-16T10:54:39;11.80;99.90
9305;DHT22;4690;52.422;13.486;2023-04-16T10:57:09;11.70;99.90
9305;DHT22;4690;52.422;13.486;2023-04-16T10:59:42;11.70;99.90
9305;DHT22;4690;52.422;13.486;2023-04-16T11:02:13;11.80;99.90
9305;DHT22;4690;52.422;13.486;2023-04-16T11:04:44;11.80;99.90
9305;DHT22;4690;52.422;13.486;2023-04-16T11:09:49;11.90;99.90
9305;DHT22;4690;52.422;13.486;2023-04-16T11:12:35;11.90;99.90
9305;DHT22;4690;52.422;13.486;2023-04-16T11:15:27;11.90;99.90
9305;DHT22;4690;52.422;13.486;2023-04-16T11:17:55;11.90;99.90
9305;DHT22;4690;52.422;13.486;2023-04-16T11:20:23;12.10;99.90
9305;DHT22;4690;52.422;13.486;2023-04-16T11:22:55;12.00;99.90
9305;DHT22;4690;52.422;13.486;2023-04-16T11:25:27;12.10;99.90
9305;DHT22;4690;52.422;13.486;2023-04-16T11:27:54;12.10;99.90
9305;DHT22;4690;52.422;13.486;2023-04-16T11:30:36;12.00;99.90
9305;DHT22;4690;52.422;13.486;2023-04-16T11:35:29;12.00;99.90
9305;DHT22;4690;52.422;13.486;2023-04-16T11:37:56;12.00;99.90
9305;DHT22;4690;52.422;13.486;2023-04-16T11:40:23;12.00;99.90
9305;DHT22;4690;52.422;13.486;2023-04-16T11:42:49;12.00;99.90
9305;DHT22;4690;52.422;13.486;2023-04-16T11:45:15;12.00;99.90
9305;DHT22;4690;52.422;13.486;2023-04-16T11:47:44;12.00;99.90
9305;DHT22;4690;52.422;13.486;2023-04-16T11:50:19;12.10;99.90
9305;DHT22;4690;52.422;13.486;2023-04-16T11:52:45;12.20;99.90
9305;DHT22;4690;52.422;13.486;2023-04-16T11:55:11;12.10;99.90
9305;DHT22;4690;52.422;13.486;2023-04-16T11:57:37;12.20;99.90
9305;DHT22;4690;52.422;13.486;2023-04-16T12:00:03;12.20;99.90
9305;DHT22;4690;52.422;13.486;2023-04-16T12:02:37;12.30;99.90
9305;DHT22;4690;52.422;13.486;2023-04-16T12:07:53;12.40;99.90
9305;DHT22;4690;52.422;13.486;2023-04-16T12:10:20;12.50;99.90
9305;DHT22;4690;52.422;13.486;2023-04-16T12:12:45;12.50;99.90
9305;DHT22;4690;52.422;13.486;2023-04-16T12:15:11;12.40;99.90
9305;DHT22;4690;52.422;13.486;2023-04-16T12:17:37;12.50;99.90
9305;DHT22;4690;52.422;13.486;2023-04-16T12:22:36;12.60;99.90
9305;DHT22;4690;52.422;13.486;2023-04-16T12:25:14;12.40;99.90
9305;DHT22;4690;52.422;13.486;2023-04-16T12:27:47;12.60;99.90
9305;DHT22;4690;52.422;13.486;2023-04-16T12:30:18;12.60;99.90
9305;DHT22;4690;52.422;13.486;2023-04-16T12:32:48;12.50;99.90
9305;DHT22;4690;52.422;13.486;2023-04-16T12:35:32;12.30;99.90
9305;DHT22;4690;52.422;13.486;2023-04-16T12:37:59;12.30;99.90
9305;DHT22;4690;52.422;13.486;2023-04-16T12:40:25;12.10;99.90
9305;DHT22;4690;52.422;13.486;2023-04-16T12:42:51;12.10;99.90
9305;DHT22;4690;52.422;13.486;2023-04-16T12:45:17;12.10;99.90
9305;DHT22;4690;52.422;13.486;2023-04-16T12:47:43;12.20;99.90
9305;DHT22;4690;52.422;13.486;2023-04-16T12:50:09;12.10;99.90
9305;DHT22;4690;52.422;13.486;2023-04-16T12:52:35;12.00;99.90
9305;DHT22;4690;52.422;13.486;2023-04-16T12:55:01;11.90;99.90
9305;DHT22;4690;52.422;13.486;2023-04-16T12:57:27;11.80;99.90
9305;DHT22;4690;52.422;13.486;2023-04-16T12:59:54;11.70;99.90
9305;DHT22;4690;52.422;13.486;2023-04-16T13:02:24;11.70;99.90
9305;DHT22;4690;52.422;13.486;2023-04-16T13:04:51;11.70;99.90
9305;DHT22;4690;52.422;13.486;2023-04-16T13:07:17;11.60;99.90
9305;DHT22;4690;52.422;13.486;2023-04-16T13:09:44;11.60;99.90
9305;DHT22;4690;52.422;13.486;2023-04-16T13:12:10;11.60;99.90
9305;DHT22;4690;52.422;13.486;2023-04-16T13:14:37;11.60;99.90
9305;DHT22;4690;52.422;13.486;2023-04-16T13:17:03;11.60;99.90
9305;DHT22;4690;52.422;13.486;2023-04-16T13:19:30;11.60;99.90
9305;DHT22;4690;52.422;13.486;2023-04-16T13:21:55;11.60;99.90
9305;DHT22;4690;52.422;13.486;2023-04-16T13:24:22;11.60;99.90
9305;DHT22;4690;52.422;13.486;2023-04-16T13:26:48;11.60;99.90
9305;DHT22;4690;52.422;13.486;2023-04-16T13:29:16;11.50;99.90
9305;DHT22;4690;52.422;13.486;2023-04-16T13:31:42;11.40;99.90
9305;DHT22;4690;52.422;13.486;2023-04-16T13:34:08;11.40;99.90
9305;DHT22;4690;52.422;13.486;2023-04-16T13:36:33;11.40;99.90
9305;DHT22;4690;52.422;13.486;2023-04-16T13:38:59;11.40;99.90
9305;DHT22;4690;52.422;13.486;2023-04-16T13:41:27;11.40;99.90
9305;DHT22;4690;52.422;13.486;2023-04-16T13:43:53;11.50;99.90
9305;DHT22;4690;52.422;13.486;2023-04-16T13:46:19;11.50;99.90
9305;DHT22;4690;52.422;13.486;2023-04-16T13:48:45;11.50;99.90
9305;DHT22;4690;52.422;13.486;2023-04-16T13:51:11;11.50;99.90
9305;DHT22;4690;52.422;13.486;2023-04-16T13:53:38;11.50;99.90
9305;DHT22;4690;52.422;13.486;2023-04-16T13:56:04;11.50;99.90
9305;DHT22;4690;52.422;13.486;2023-04-16T13:58:31;11.40;99.90
9305;DHT22;4690;52.422;13.486;2023-04-16T14:00:58;11.40;99.90
9305;DHT22;4690;52.422;13.486;2023-04-16T14:03:24;11.40;99.90
9305;DHT22;4690;52.422;13.486;2023-04-16T14:05:51;11.40;99.90
9305;DHT22;4690;52.422;13.486;2023-04-16T14:08:18;11.50;99.90
9305;DHT22;4690;52.422;13.486;2023-04-16T14:10:48;11.60;99.90
9305;DHT22;4690;52.422;13.486;2023-04-16T14:13:14;11.60;99.90
9305;DHT22;4690;52.422;13.486;2023-04-16T14:15:40;11.60;99.90
9305;DHT22;4690;52.422;13.486;2023-04-16T14:18:06;11.70;99.90
9305;DHT22;4690;52.422;13.486;2023-04-16T14:20:31;11.60;99.90
9305;DHT22;4690;52.422;13.486;2023-04-16T14:22:57;11.70;99.90
9305;DHT22;4690;52.422;13.486;2023-04-16T14:25:23;11.70;99.90
9305;DHT22;4690;52.422;13.486;2023-04-16T14:27:49;11.80;99.90
9305;DHT22;4690;52.422;13.486;2023-04-16T14:30:15;11.70;99.90
9305;DHT22;4690;52.422;13.486;2023-04-16T14:32:41;11.80;99.90
9305;DHT22;4690;52.422;13.486;2023-04-16T14:35:07;11.90;99.90
9305;DHT22;4690;52.422;13.486;2023-04-16T14:37:34;11.90;99.90
9305;DHT22;4690;52.422;13.486;2023-04-16T14:40:01;11.90;99.90
9305;DHT22;4690;52.422;13.486;2023-04-16T14:42:32;11.90;99.90
9305;DHT22;4690;52.422;13.486;2023-04-16T14:44:57;11.90;99.90
9305;DHT22;4690;52.422;13.486;2023-04-16T14:47:24;12.00;99.90
9305;DHT22;4690;52.422;13.486;2023-04-16T14:49:49;11.90;99.90
9305;DHT22;4690;52.422;13.486;2023-04-16T14:52:15;11.90;99.90
9305;DHT22;4690;52.422;13.486;2023-04-16T14:54:41;12.00;99.90
9305;DHT22;4690;52.422;13.486;2023-04-16T14:57:07;11.90;99.90
9305;DHT22;4690;52.422;13.486;2023-04-16T14:59:33;11.80;99.90
9305;DHT22;4690;52.422;13.486;2023-04-16T15:01:58;11.60;99.90
9305;DHT22;4690;52.422;13.486;2023-04-16T15:04:24;11.60;99.90
9305;DHT22;4690;52.422;13.486;2023-04-16T15:06:50;11.60;99.90
9305;DHT22;4690;52.422;13.486;2023-04-16T15:09:16;11.50;99.90
9305;DHT22;4690;52.422;13.486;2023-04-16T15:11:42;11.50;99.90
9305;DHT22;4690;52.422;13.486;2023-04-16T15:14:07;11.40;99.90
9305;DHT22;4690;52.422;13.486;2023-04-16T15:16:33;11.40;99.90
9305;DHT22;4690;52.422;13.486;2023-04-16T15:18:59;11.40;99.90
9305;DHT22;4690;52.422;13.486;2023-04-16T15:21:25;11.40;99.90
9305;DHT22;4690;52.422;13.486;2023-04-16T15:23:52;11.40;99.90
9305;DHT22;4690;52.422;13.486;2023-04-16T15:26:18;11.40;99.90
9305;DHT22;4690;52.422;13.486;2023-04-16T15:28:44;11.40;99.90
9305;DHT22;4690;52.422;13.486;2023-04-16T15:31:10;11.40;99.90
9305;DHT22;4690;52.422;13.486;2023-04-16T15:33:36;11.30;99.90
9305;DHT22;4690;52.422;13.486;2023-04-16T15:36:01;11.30;99.90
9305;DHT22;4690;52.422;13.486;2023-04-16T15:38:28;11.30;99.90
9305;DHT22;4690;52.422;13.486;2023-04-16T15:40:57;11.30;99.90
9305;DHT22;4690;52.422;13.486;2023-04-16T15:43:26;11.30;99.90
9305;DHT22;4690;52.422;13.486;2023-04-16T15:45:53;11.40;99.90
9305;DHT22;4690;52.422;13.486;2023-04-16T15:48:18;11.40;99.90
9305;DHT22;4690;52.422;13.486;2023-04-16T15:50:44;11.40;99.90
9305;DHT22;4690;52.422;13.486;2023-04-16T15:53:10;11.40;99.90
9305;DHT22;4690;52.422;13.486;2023-04-16T15:55:37;11.40;99.90
9305;DHT22;4690;52.422;13.486;2023-04-16T15:58:03;11.50;99.90